createdAt,value
2023-02-03T00:00:41.039Z,90.746
2023-02-03T00:01:40.831Z,90.433
2023-02-03T00:02:40.827Z,90.262
2023-02-03T00:03:40.744Z,90.717
2023-02-03T00:04:40.515Z,90.981
2023-02-03T00:05:41.379Z,89.918
2023-02-03T00:06:41.114Z,90.384
2023-02-03T00:07:41.031Z,90.361
2023-02-03T00:08:40.685Z,90.653
2023-02-03T00:09:41.524Z,91.034
2023-02-03T00:10:41.479Z,90.050
2023-02-03T00:11:41.196Z,90.059
2023-02-03T00:12:41.024Z,90.374
2023-02-03T00:13:40.865Z,90.155
2023-02-03T00:14:40.607Z,90.509
2023-02-03T00:15:41.443Z,90.572
2023-02-03T00:16:41.275Z,90.616
2023-02-03T00:17:40.887Z,90.658
2023-02-03T00:18:40.575Z,90.427
2023-02-03T00:19:41.331Z,90.696
2023-02-03T00:20:41.147Z,90.515
2023-02-03T00:21:41.143Z,90.252
2023-02-03T00:22:41.010Z,90.962
2023-02-03T00:23:40.942Z,91.099
2023-02-03T00:24:40.705Z,91.280
2023-02-03T00:25:40.740Z,91.255
2023-02-03T00:26:40.523Z,90.824
2023-02-03T00:27:41.375Z,90.593
2023-02-03T00:28:41.130Z,90.860
2023-02-03T00:29:40.962Z,90.857
2023-02-03T00:30:40.693Z,91.145
2023-02-03T00:31:40.629Z,91.488
2023-02-03T00:32:40.991Z,91.709
2023-02-03T00:33:40.932Z,91.152
2023-02-03T00:34:40.894Z,91.034
2023-02-03T00:35:40.659Z,90.752
2023-02-03T00:36:44.765Z,91.482
2023-02-03T00:37:40.931Z,91.631
2023-02-03T00:38:40.539Z,91.601
2023-02-03T00:39:40.408Z,91.084
2023-02-03T00:40:41.232Z,91.232
2023-02-03T00:41:41.191Z,91.362
2023-02-03T00:42:41.020Z,91.650
2023-02-03T00:43:40.828Z,91.635
2023-02-03T00:44:40.577Z,91.444
2023-02-03T00:45:40.539Z,91.850
2023-02-03T00:46:40.702Z,91.477
2023-02-03T00:47:41.082Z,91.457
2023-02-03T00:48:41.137Z,90.870
2023-02-03T00:49:40.868Z,91.154
2023-02-03T00:50:40.739Z,91.513
2023-02-03T00:51:40.574Z,91.644
2023-02-03T00:52:41.450Z,91.602
2023-02-03T00:53:41.139Z,91.608
2023-02-03T00:54:42.359Z,91.765
2023-02-03T00:55:42.713Z,92.022
2023-02-03T00:56:41.211Z,91.770
2023-02-03T00:57:41.863Z,91.883
2023-02-03T00:58:40.576Z,91.808
2023-02-03T00:59:41.355Z,91.587
2023-02-03T01:00:41.028Z,91.501
2023-02-03T01:01:42.168Z,91.206
2023-02-03T01:02:41.389Z,91.175
2023-02-03T01:03:41.585Z,91.057
2023-02-03T01:04:41.428Z,91.488
2023-02-03T01:05:41.164Z,91.671
2023-02-03T01:06:41.335Z,91.219
2023-02-03T01:07:41.055Z,91.375
2023-02-03T01:08:40.992Z,91.131
2023-02-03T01:09:41.030Z,91.435
2023-02-03T01:10:40.885Z,91.637
2023-02-03T01:11:40.864Z,91.171
2023-02-03T01:12:40.574Z,91.118
2023-02-03T01:13:41.685Z,91.557
2023-02-03T01:14:40.559Z,91.553
2023-02-03T01:15:41.357Z,91.530
2023-02-03T01:16:41.008Z,91.400
2023-02-03T01:17:41.141Z,91.667
2023-02-03T01:18:41.159Z,91.908
2023-02-03T01:19:40.933Z,91.608
2023-02-03T01:20:41.158Z,91.332
2023-02-03T01:21:41.147Z,91.448
2023-02-03T01:22:40.919Z,91.469
2023-02-03T01:23:40.689Z,91.526
2023-02-03T01:24:40.506Z,91.944
2023-02-03T01:25:41.203Z,92.108
2023-02-03T01:26:41.062Z,91.837
2023-02-03T01:27:41.030Z,91.936
2023-02-03T01:28:40.771Z,91.549
2023-02-03T01:29:40.556Z,91.488
2023-02-03T01:30:41.422Z,91.887
2023-02-03T01:31:41.091Z,91.902
2023-02-03T01:32:41.197Z,91.982
2023-02-03T01:33:41.222Z,91.860
2023-02-03T01:34:41.231Z,91.890
2023-02-03T01:35:41.437Z,91.929
2023-02-03T01:36:41.147Z,91.896
2023-02-03T01:37:40.955Z,92.262
2023-02-03T01:38:40.743Z,91.858
2023-02-03T01:39:40.563Z,91.766
2023-02-03T01:40:41.356Z,91.763
2023-02-03T01:41:41.258Z,91.675
2023-02-03T01:42:41.147Z,91.736
2023-02-03T01:43:41.264Z,91.892
2023-02-03T01:44:41.170Z,91.669
2023-02-03T01:45:40.903Z,91.868
2023-02-03T01:46:41.051Z,91.528
2023-02-03T01:47:40.856Z,91.583
2023-02-03T01:48:40.683Z,91.066
2023-02-03T01:49:40.537Z,91.164
2023-02-03T01:50:41.439Z,91.538
2023-02-03T01:51:41.357Z,91.490
2023-02-03T01:53:40.827Z,91.129
2023-02-03T01:54:40.677Z,91.187
2023-02-03T01:55:40.502Z,91.024
2023-02-03T01:56:41.288Z,90.929
2023-02-03T01:57:40.356Z,91.011
2023-02-03T01:58:41.017Z,90.992
2023-02-03T01:59:40.863Z,90.902
2023-02-03T02:00:41.563Z,91.126
2023-02-03T02:01:40.796Z,91.061
2023-02-03T02:02:40.836Z,90.899
2023-02-03T02:03:40.820Z,91.116
2023-02-03T02:04:40.632Z,90.578
2023-02-03T02:05:41.411Z,90.849
2023-02-03T02:06:41.279Z,90.967
2023-02-03T02:07:41.090Z,91.086
2023-02-03T02:08:40.996Z,90.792
2023-02-03T02:09:40.911Z,91.065
2023-02-03T02:10:40.796Z,90.401
2023-02-03T02:11:40.498Z,90.597
2023-02-03T02:12:41.267Z,90.809
2023-02-03T02:13:40.931Z,90.561
2023-02-03T02:14:40.803Z,90.668
2023-02-03T02:15:40.820Z,90.855
2023-02-03T02:16:41.092Z,89.909
2023-02-03T02:17:41.366Z,90.654
2023-02-03T02:18:41.263Z,90.147
2023-02-03T02:19:41.530Z,90.662
2023-02-03T02:20:40.695Z,90.658
2023-02-03T02:21:40.741Z,90.653
2023-02-03T02:22:40.954Z,90.349
2023-02-03T02:23:40.977Z,90.078
2023-02-03T02:24:41.096Z,90.069
2023-02-03T02:25:41.097Z,90.422
2023-02-03T02:26:41.312Z,90.420
2023-02-03T02:27:41.480Z,89.989
2023-02-03T02:28:40.932Z,89.947
2023-02-03T02:29:41.496Z,89.855
2023-02-03T02:30:41.641Z,90.160
2023-02-03T02:31:41.313Z,89.592
2023-02-03T02:32:40.568Z,89.794
2023-02-03T02:33:41.303Z,89.817
2023-02-03T02:34:41.271Z,90.042
2023-02-03T02:35:41.140Z,89.932
2023-02-03T02:36:41.332Z,89.426
2023-02-03T02:37:41.157Z,89.779
2023-02-03T02:38:40.932Z,89.777
2023-02-03T02:39:40.723Z,89.779
2023-02-03T02:40:40.645Z,89.798
2023-02-03T02:41:40.414Z,89.752
2023-02-03T02:42:41.263Z,89.459
2023-02-03T02:43:41.087Z,89.291
2023-02-03T02:44:40.946Z,89.310
2023-02-03T02:45:41.042Z,89.251
2023-02-03T02:46:41.210Z,89.233
2023-02-03T02:47:41.128Z,89.485
2023-02-03T02:48:41.008Z,89.628
2023-02-03T02:49:41.008Z,89.342
2023-02-03T02:50:41.179Z,89.558
2023-02-03T02:51:41.266Z,89.705
2023-02-03T02:52:42.158Z,89.230
2023-02-03T02:53:41.073Z,89.500
2023-02-03T02:54:41.133Z,89.233
2023-02-03T02:55:41.227Z,89.382
2023-02-03T02:56:41.352Z,89.510
2023-02-03T02:57:41.201Z,89.935
2023-02-03T02:58:40.977Z,89.443
2023-02-03T02:59:40.946Z,89.134
2023-02-03T03:00:41.252Z,89.542
2023-02-03T03:01:41.702Z,89.687
2023-02-03T03:02:41.057Z,89.241
2023-02-03T03:03:41.328Z,89.832
2023-02-03T03:04:41.303Z,90.181
2023-02-03T03:05:40.597Z,90.262
2023-02-03T03:06:40.754Z,90.588
2023-02-03T03:07:40.637Z,90.685
2023-02-03T03:08:40.623Z,90.710
2023-02-03T03:09:40.643Z,90.595
2023-02-03T03:10:40.784Z,90.864
2023-02-03T03:11:41.128Z,90.988
2023-02-03T03:12:40.975Z,90.317
2023-02-03T03:13:40.998Z,90.614
2023-02-03T03:14:41.068Z,90.984
2023-02-03T03:15:41.106Z,90.492
2023-02-03T03:16:41.485Z,90.632
2023-02-03T03:17:41.627Z,90.515
2023-02-03T03:18:40.792Z,90.715
2023-02-03T03:19:40.847Z,91.129
2023-02-03T03:20:40.876Z,91.221
2023-02-03T03:21:40.855Z,90.889
2023-02-03T03:22:40.884Z,90.672
2023-02-03T03:23:40.788Z,90.567
2023-02-03T03:24:40.648Z,90.807
2023-02-03T03:25:40.592Z,90.548
2023-02-03T03:26:40.490Z,90.843
2023-02-03T03:27:41.442Z,91.030
2023-02-03T03:28:40.536Z,90.984
2023-02-03T03:29:41.528Z,91.164
2023-02-03T03:30:41.421Z,90.361
2023-02-03T03:31:40.948Z,90.376
2023-02-03T03:32:41.100Z,90.607
2023-02-03T03:33:40.900Z,90.544
2023-02-03T03:34:40.891Z,90.746
2023-02-03T03:35:40.894Z,90.462
2023-02-03T03:36:40.663Z,90.714
2023-02-03T03:37:40.468Z,90.397
2023-02-03T03:38:41.520Z,90.563
2023-02-03T03:39:41.301Z,91.068
2023-02-03T03:40:41.292Z,91.108
2023-02-03T03:41:41.359Z,90.313
2023-02-03T03:42:41.231Z,90.643
2023-02-03T03:43:41.532Z,90.725
2023-02-03T03:44:41.407Z,90.567
2023-02-03T03:45:41.464Z,90.689
2023-02-03T03:47:41.597Z,90.653
2023-02-03T03:48:40.699Z,91.068
2023-02-03T03:49:41.480Z,90.925
2023-02-03T03:50:41.552Z,90.639
2023-02-03T03:52:41.247Z,90.099
2023-02-03T03:53:41.048Z,90.130
2023-02-03T03:54:41.105Z,89.920
2023-02-03T03:55:40.900Z,89.863
2023-02-03T03:56:40.715Z,89.752
2023-02-03T03:57:40.699Z,89.726
2023-02-03T03:58:41.314Z,89.935
2023-02-03T03:59:41.159Z,89.542
2023-02-03T04:00:41.182Z,89.798
2023-02-03T04:01:41.648Z,89.880
2023-02-03T04:02:41.154Z,89.827
2023-02-03T04:03:41.063Z,89.390
2023-02-03T04:04:41.022Z,89.132
2023-02-03T04:05:40.810Z,89.611
2023-02-03T04:06:40.829Z,89.808
2023-02-03T04:07:40.561Z,89.895
2023-02-03T04:08:41.359Z,90.075
2023-02-03T04:09:41.150Z,90.212
2023-02-03T04:10:41.351Z,90.387
2023-02-03T04:11:41.214Z,90.328
2023-02-03T04:12:41.136Z,90.233
2023-02-03T04:13:40.856Z,90.050
2023-02-03T04:14:40.973Z,89.521
2023-02-03T04:15:40.959Z,89.441
2023-02-03T04:17:44.957Z,89.518
2023-02-03T04:18:43.612Z,89.317
2023-02-03T04:19:40.603Z,89.565
2023-02-03T04:20:41.675Z,89.562
2023-02-03T04:21:40.617Z,90.073
2023-02-03T04:22:41.500Z,89.863
2023-02-03T04:23:40.498Z,89.781
2023-02-03T04:24:40.571Z,89.016
2023-02-03T04:25:41.623Z,89.117
2023-02-03T04:26:40.563Z,89.075
2023-02-03T04:27:40.601Z,89.108
2023-02-03T04:28:40.497Z,88.661
2023-02-03T04:29:40.501Z,88.619
2023-02-03T04:30:40.708Z,89.033
2023-02-03T04:31:40.671Z,89.054
2023-02-03T04:32:40.739Z,89.136
2023-02-03T04:33:40.773Z,89.361
2023-02-03T04:34:40.740Z,89.529
2023-02-03T04:35:40.805Z,89.319
2023-02-03T04:36:40.651Z,89.243
2023-02-03T04:37:41.500Z,89.308
2023-02-03T04:38:40.530Z,89.314
2023-02-03T04:39:40.726Z,88.974
2023-02-03T04:40:40.844Z,89.153
2023-02-03T04:41:40.712Z,89.230
2023-02-03T04:42:40.678Z,89.188
2023-02-03T04:43:40.632Z,89.117
2023-02-03T04:44:40.619Z,89.098
2023-02-03T04:45:41.678Z,89.214
2023-02-03T04:46:41.071Z,88.825
2023-02-03T04:47:40.926Z,88.797
2023-02-03T04:48:40.735Z,88.520
2023-02-03T04:49:40.546Z,88.707
2023-02-03T04:50:40.657Z,89.083
2023-02-03T04:51:40.847Z,88.528
2023-02-03T04:52:40.756Z,88.923
2023-02-03T04:53:40.564Z,88.667
2023-02-03T04:54:40.676Z,88.787
2023-02-03T04:55:41.480Z,89.312
2023-02-03T04:56:41.587Z,89.356
2023-02-03T04:57:41.364Z,89.291
2023-02-03T04:58:41.433Z,89.218
2023-02-03T04:59:41.384Z,89.232
2023-02-03T05:00:41.399Z,88.928
2023-02-03T05:01:40.571Z,89.439
2023-02-03T05:02:41.534Z,89.073
2023-02-03T05:03:41.682Z,89.085
2023-02-03T05:04:40.427Z,89.253
2023-02-03T05:05:41.351Z,89.031
2023-02-03T05:06:41.067Z,89.188
2023-02-03T05:07:41.102Z,88.955
2023-02-03T05:08:41.307Z,89.029
2023-02-03T05:09:41.215Z,89.197
2023-02-03T05:10:41.159Z,89.504
2023-02-03T05:11:40.907Z,89.455
2023-02-03T05:12:40.800Z,89.590
2023-02-03T05:13:40.543Z,89.228
2023-02-03T05:14:40.593Z,89.413
2023-02-03T05:15:40.579Z,89.575
2023-02-03T05:16:41.551Z,89.853
2023-02-03T05:17:40.609Z,89.813
2023-02-03T05:18:41.410Z,89.487
2023-02-03T05:19:41.108Z,89.331
2023-02-03T05:20:40.984Z,89.447
2023-02-03T05:21:40.928Z,89.270
2023-02-03T05:22:40.684Z,89.268
2023-02-03T05:23:40.564Z,89.861
2023-02-03T05:24:41.376Z,89.775
2023-02-03T05:25:41.355Z,89.905
2023-02-03T05:26:41.528Z,90.014
2023-02-03T05:27:41.450Z,89.670
2023-02-03T05:28:41.501Z,89.478
2023-02-03T05:29:41.166Z,89.844
2023-02-03T05:30:41.377Z,89.861
2023-02-03T05:31:41.546Z,89.390
2023-02-03T05:32:40.684Z,89.693
2023-02-03T05:33:40.443Z,89.180
2023-02-03T05:34:43.729Z,89.111
2023-02-03T05:35:40.879Z,89.409
2023-02-03T05:36:40.978Z,89.878
2023-02-03T05:37:40.838Z,89.808
2023-02-03T05:38:40.856Z,89.647
2023-02-03T05:39:40.799Z,90.138
2023-02-03T05:40:40.546Z,89.989
2023-02-03T05:41:40.622Z,90.042
2023-02-03T05:42:40.424Z,90.084
2023-02-03T05:43:41.208Z,89.855
2023-02-03T05:44:41.085Z,89.249
2023-02-03T05:45:40.954Z,89.903
2023-02-03T05:46:41.017Z,90.254
2023-02-03T05:47:40.737Z,90.002
2023-02-03T05:48:40.459Z,89.951
2023-02-03T05:49:41.353Z,90.347
2023-02-03T05:50:41.329Z,90.305
2023-02-03T05:51:41.125Z,90.624
2023-02-03T05:52:40.909Z,90.077
2023-02-03T05:53:40.909Z,89.733
2023-02-03T05:54:40.826Z,90.103
2023-02-03T05:55:40.828Z,90.073
2023-02-03T05:56:40.587Z,90.744
2023-02-03T05:57:41.362Z,90.475
2023-02-03T05:58:41.235Z,90.920
2023-02-03T05:59:40.983Z,90.679
2023-02-03T06:00:41.087Z,90.540
2023-02-03T06:01:41.038Z,89.762
2023-02-03T06:02:41.023Z,90.351
2023-02-03T06:03:41.799Z,90.853
2023-02-03T06:04:41.453Z,90.847
2023-02-03T06:05:40.640Z,90.883
2023-02-03T06:06:40.913Z,90.889
2023-02-03T06:07:41.435Z,90.128
2023-02-03T06:08:41.431Z,90.414
2023-02-03T06:09:40.762Z,89.855
2023-02-03T06:10:40.798Z,89.874
2023-02-03T06:11:40.948Z,89.689
2023-02-03T06:12:41.227Z,89.748
2023-02-03T06:13:41.477Z,90.286
2023-02-03T06:14:40.575Z,90.117
2023-02-03T06:15:40.619Z,90.321
2023-02-03T06:16:40.838Z,90.519
2023-02-03T06:17:40.975Z,90.309
2023-02-03T06:18:41.340Z,89.905
2023-02-03T06:19:41.206Z,90.353
2023-02-03T06:20:41.102Z,90.206
2023-02-03T06:21:41.320Z,90.166
2023-02-03T06:22:41.259Z,89.920
2023-02-03T06:23:41.328Z,89.706
2023-02-03T06:24:41.248Z,89.737
2023-02-03T06:25:41.232Z,89.809
2023-02-03T06:26:41.195Z,89.144
2023-02-03T06:27:41.259Z,89.222
2023-02-03T06:28:40.558Z,89.205
2023-02-03T06:29:41.418Z,89.237
2023-02-03T06:30:41.638Z,88.732
2023-02-03T06:31:41.133Z,89.251
2023-02-03T06:32:41.269Z,89.487
2023-02-03T06:33:41.168Z,89.336
2023-02-03T06:34:41.500Z,89.603
2023-02-03T06:35:41.468Z,89.432
2023-02-03T06:36:41.704Z,89.544
2023-02-03T06:37:41.127Z,89.136
2023-02-03T06:38:41.251Z,89.512
2023-02-03T06:39:41.320Z,89.167
2023-02-03T06:40:41.498Z,89.516
2023-02-03T06:41:40.824Z,89.487
2023-02-03T06:42:40.842Z,89.121
2023-02-03T06:43:40.999Z,89.731
2023-02-03T06:44:41.067Z,89.588
2023-02-03T06:45:41.129Z,89.748
2023-02-03T06:46:41.333Z,89.708
2023-02-03T06:47:41.313Z,89.861
2023-02-03T06:48:41.198Z,89.436
2023-02-03T06:49:41.150Z,89.703
2023-02-03T06:50:41.260Z,89.233
2023-02-03T06:51:41.455Z,89.562
2023-02-03T06:52:41.594Z,89.274
2023-02-03T06:53:41.366Z,89.319
2023-02-03T06:54:42.224Z,89.363
2023-02-03T06:55:41.112Z,89.439
2023-02-03T06:56:40.997Z,89.500
2023-02-03T06:57:40.981Z,89.481
2023-02-03T06:58:40.815Z,88.537
2023-02-03T06:59:40.612Z,88.446
2023-02-03T07:00:40.714Z,88.921
2023-02-03T07:01:40.597Z,89.167
2023-02-03T07:02:40.561Z,89.411
2023-02-03T07:03:40.568Z,89.714
2023-02-03T07:04:41.431Z,88.873
2023-02-03T07:05:41.244Z,89.392
2023-02-03T07:06:40.948Z,89.476
2023-02-03T07:07:40.775Z,89.754
2023-02-03T07:08:40.603Z,89.533
2023-02-03T07:09:41.353Z,89.237
2023-02-03T07:10:41.159Z,89.792
2023-02-03T07:11:40.848Z,89.708
2023-02-03T07:12:40.604Z,89.682
2023-02-03T07:13:41.286Z,89.031
2023-02-03T07:14:41.062Z,89.441
2023-02-03T07:15:41.136Z,89.132
2023-02-03T07:16:41.094Z,89.302
2023-02-03T07:17:40.777Z,89.142
2023-02-03T07:18:50.085Z,88.942
2023-02-03T07:19:40.840Z,88.671
2023-02-03T07:20:40.530Z,88.858
2023-02-03T07:21:41.249Z,88.194
2023-02-03T07:22:40.940Z,88.722
2023-02-03T07:23:40.617Z,89.033
2023-02-03T07:24:41.308Z,88.915
2023-02-03T07:25:41.225Z,89.096
2023-02-03T07:26:40.943Z,88.051
2023-02-03T07:27:40.658Z,87.839
2023-02-03T07:28:40.417Z,88.503
2023-02-03T07:29:41.104Z,88.224
2023-02-03T07:30:40.813Z,88.381
2023-02-03T07:31:40.907Z,88.238
2023-02-03T07:32:41.071Z,88.594
2023-02-03T07:33:41.020Z,88.472
2023-02-03T07:34:40.721Z,88.194
2023-02-03T07:35:40.460Z,87.317
2023-02-03T07:36:41.481Z,87.668
2023-02-03T07:37:41.341Z,87.555
2023-02-03T07:38:41.056Z,87.856
2023-02-03T07:39:40.786Z,88.162
2023-02-03T07:40:40.511Z,87.565
2023-02-03T07:41:41.397Z,87.910
2023-02-03T07:42:41.195Z,87.879
2023-02-03T07:43:41.247Z,87.612
2023-02-03T07:44:41.099Z,87.265
2023-02-03T07:45:40.770Z,87.423
2023-02-03T07:46:40.550Z,87.509
2023-02-03T07:47:40.577Z,87.452
2023-02-03T07:48:41.307Z,87.393
2023-02-03T07:49:41.212Z,87.252
2023-02-03T07:50:40.996Z,87.788
2023-02-03T07:51:40.947Z,87.610
2023-02-03T07:52:41.420Z,87.460
2023-02-03T07:53:41.175Z,87.379
2023-02-03T07:54:41.040Z,87.484
2023-02-03T07:55:40.750Z,87.660
2023-02-03T07:56:41.349Z,87.565
2023-02-03T07:57:41.099Z,88.078
2023-02-03T07:58:40.748Z,87.624
2023-02-03T07:59:40.479Z,87.912
2023-02-03T08:00:41.324Z,87.519
2023-02-03T08:01:41.419Z,87.988
2023-02-03T08:02:40.692Z,87.816
2023-02-03T08:03:40.475Z,88.068
2023-02-03T08:04:40.724Z,87.675
2023-02-03T08:05:40.538Z,87.837
2023-02-03T08:06:40.444Z,87.637
2023-02-03T08:07:41.238Z,87.530
2023-02-03T08:08:40.939Z,88.076
2023-02-03T08:09:40.696Z,87.811
2023-02-03T08:10:41.319Z,87.990
2023-02-03T08:11:41.217Z,87.336
2023-02-03T08:12:41.003Z,87.471
2023-02-03T08:13:40.694Z,87.376
2023-02-03T08:14:40.455Z,87.519
2023-02-03T08:15:41.125Z,87.673
2023-02-03T08:16:41.075Z,87.692
2023-02-03T08:17:40.859Z,88.003
2023-02-03T08:18:40.885Z,88.049
2023-02-03T08:19:40.581Z,87.221
2023-02-03T08:20:41.371Z,87.061
2023-02-03T08:21:41.024Z,87.233
2023-02-03T08:22:40.720Z,87.597
2023-02-03T08:23:40.484Z,87.322
2023-02-03T08:24:40.408Z,87.544
2023-02-03T08:25:42.237Z,87.254
2023-02-03T08:26:40.930Z,87.206
2023-02-03T08:27:40.628Z,87.120
2023-02-03T08:28:40.512Z,87.494
2023-02-03T08:29:41.196Z,87.629
2023-02-03T08:30:40.891Z,87.093
2023-02-03T08:31:41.046Z,86.733
2023-02-03T08:32:40.956Z,87.273
2023-02-03T08:33:40.760Z,86.956
2023-02-03T08:34:40.746Z,87.345
2023-02-03T08:35:40.579Z,87.675
2023-02-03T08:36:40.734Z,87.484
2023-02-03T08:37:40.411Z,87.202
2023-02-03T08:38:41.114Z,87.484
2023-02-03T08:39:41.136Z,86.784
2023-02-03T08:40:41.122Z,86.788
2023-02-03T08:41:40.913Z,86.620
2023-02-03T08:42:40.720Z,86.666
2023-02-03T08:43:40.775Z,86.905
2023-02-03T08:44:40.515Z,86.779
2023-02-03T08:45:41.495Z,86.647
2023-02-03T08:46:40.439Z,87.191
2023-02-03T08:47:40.713Z,86.807
2023-02-03T08:48:40.475Z,86.626
2023-02-03T08:49:41.300Z,86.464
2023-02-03T08:50:41.024Z,86.689
2023-02-03T08:51:41.151Z,87.027
2023-02-03T08:52:40.940Z,87.635
2023-02-03T08:53:40.663Z,87.849
2023-02-03T08:54:40.430Z,88.560
2023-02-03T08:55:42.189Z,88.711
2023-02-03T08:56:41.156Z,88.726
2023-02-03T08:57:40.840Z,88.997
2023-02-03T08:58:40.506Z,88.633
2023-02-03T08:59:41.356Z,88.802
2023-02-03T09:00:41.173Z,89.397
2023-02-03T09:01:41.023Z,89.565
2023-02-03T09:02:40.855Z,89.716
2023-02-03T09:03:40.676Z,89.464
2023-02-03T09:04:41.403Z,88.816
2023-02-03T09:05:41.286Z,88.848
2023-02-03T09:06:43.454Z,88.444
2023-02-03T09:07:41.099Z,88.589
2023-02-03T09:08:40.771Z,89.001
2023-02-03T09:09:40.954Z,89.315
2023-02-03T09:10:41.196Z,88.581
2023-02-03T09:11:40.972Z,88.797
2023-02-03T09:12:41.273Z,89.344
2023-02-03T09:13:41.239Z,89.020
2023-02-03T09:14:41.074Z,89.836
2023-02-03T09:15:41.026Z,89.783
2023-02-03T09:16:41.121Z,88.472
2023-02-03T09:17:41.304Z,89.064
2023-02-03T09:18:41.124Z,89.735
2023-02-03T09:19:41.106Z,89.527
2023-02-03T09:20:41.516Z,89.407
2023-02-03T09:21:48.923Z,89.718
2023-02-03T09:22:41.421Z,89.811
2023-02-03T09:23:41.193Z,88.535
2023-02-03T09:24:40.885Z,87.992
2023-02-03T09:25:41.012Z,88.081
2023-02-03T09:26:41.225Z,87.568
2023-02-03T09:27:41.119Z,87.767
2023-02-03T09:28:40.955Z,88.450
2023-02-03T09:29:40.842Z,88.518
2023-02-03T09:30:40.622Z,88.602
2023-02-03T09:31:40.629Z,88.230
2023-02-03T09:32:40.433Z,87.761
2023-02-03T09:33:41.351Z,87.078
2023-02-03T09:34:41.225Z,87.101
2023-02-03T09:35:41.107Z,87.114
2023-02-03T09:36:43.107Z,87.360
2023-02-03T09:37:41.200Z,87.566
2023-02-03T09:38:40.969Z,87.460
2023-02-03T09:39:40.866Z,86.189
2023-02-03T09:40:40.765Z,86.784
2023-02-03T09:42:43.647Z,86.115
2023-02-03T09:43:43.430Z,86.430
2023-02-03T09:44:44.391Z,86.580
2023-02-03T09:45:44.290Z,86.142
2023-02-03T09:46:44.369Z,86.662
2023-02-03T09:47:44.189Z,85.779
2023-02-03T09:48:43.845Z,85.407
2023-02-03T09:49:43.743Z,85.659
2023-02-03T09:50:43.707Z,85.802
2023-02-03T09:51:43.483Z,86.130
2023-02-03T09:52:44.225Z,85.499
2023-02-03T09:53:43.956Z,85.157
2023-02-03T09:54:43.719Z,84.768
2023-02-03T09:55:43.492Z,85.398
2023-02-03T09:56:49.923Z,84.888
2023-02-03T09:57:43.828Z,85.533
2023-02-03T09:58:43.593Z,85.279
2023-02-03T09:59:44.268Z,84.929
2023-02-03T10:01:45.379Z,85.100
2023-02-03T10:02:44.274Z,85.070
2023-02-03T10:03:44.189Z,84.593
2023-02-03T10:04:44.043Z,85.028
2023-02-03T10:05:43.751Z,85.041
2023-02-03T10:06:44.411Z,84.145
2023-02-03T10:07:44.271Z,84.316
2023-02-03T10:09:43.899Z,84.206
2023-02-03T10:10:43.626Z,83.672
2023-02-03T10:11:43.482Z,84.236
2023-02-03T10:12:44.267Z,83.418
2023-02-03T10:13:43.943Z,84.320
2023-02-03T10:14:43.656Z,84.335
2023-02-03T10:15:43.572Z,83.466
2023-02-03T10:16:44.504Z,84.072
2023-02-03T10:17:43.647Z,83.376
2023-02-03T10:18:43.568Z,83.185
2023-02-03T10:19:44.313Z,83.410
2023-02-03T10:20:44.317Z,83.473
2023-02-03T10:21:44.063Z,83.025
2023-02-03T10:22:44.000Z,83.261
2023-02-03T10:23:43.783Z,83.065
2023-02-03T10:24:43.627Z,83.607
2023-02-03T10:25:43.664Z,83.549
2023-02-03T10:26:43.672Z,83.778
2023-02-03T10:27:43.676Z,83.759
2023-02-03T10:28:43.402Z,82.954
2023-02-03T10:29:44.283Z,83.227
2023-02-03T10:30:44.390Z,83.296
2023-02-03T10:31:44.041Z,83.174
2023-02-03T10:32:43.588Z,82.939
2023-02-03T10:33:44.335Z,83.569
2023-02-03T10:34:44.472Z,83.378
2023-02-03T10:35:43.533Z,83.261
2023-02-03T10:36:45.064Z,82.519
2023-02-03T10:37:43.971Z,82.579
2023-02-03T10:38:43.816Z,82.275
2023-02-03T10:39:43.907Z,82.064
2023-02-03T10:40:43.915Z,82.556
2023-02-03T10:41:43.748Z,82.355
2023-02-03T10:42:43.611Z,82.390
2023-02-03T10:44:44.444Z,82.539
2023-02-03T10:45:44.595Z,82.125
2023-02-03T10:46:43.935Z,81.922
2023-02-03T10:47:43.888Z,82.148
2023-02-03T10:48:43.575Z,82.411
2023-02-03T10:49:45.255Z,82.197
2023-02-03T10:50:44.209Z,82.685
2023-02-03T10:51:43.916Z,81.930
2023-02-03T10:52:43.508Z,81.917
2023-02-03T10:54:43.987Z,82.161
2023-02-03T10:55:43.912Z,82.447
2023-02-03T10:56:43.824Z,82.754
2023-02-03T10:57:43.630Z,81.917
2023-02-03T10:58:43.364Z,81.486
2023-02-03T10:59:44.317Z,81.850
2023-02-03T11:00:44.375Z,81.972
2023-02-03T11:01:44.560Z,82.119
2023-02-03T11:02:43.595Z,81.694
2023-02-03T11:03:43.630Z,81.686
2023-02-03T11:04:43.387Z,82.134
2023-02-03T11:05:45.264Z,82.233
2023-02-03T11:06:44.686Z,81.966
2023-02-03T11:07:44.650Z,82.111
2023-02-03T11:09:44.474Z,81.856
2023-02-03T11:10:44.159Z,81.921
2023-02-03T11:12:44.234Z,81.654
2023-02-03T11:13:45.012Z,81.587
2023-02-03T11:14:44.629Z,81.716
2023-02-03T11:15:44.123Z,80.645
2023-02-03T11:17:44.473Z,81.177
2023-02-03T11:18:44.613Z,81.039
2023-02-03T11:19:43.992Z,80.608
2023-02-03T11:20:43.672Z,80.839
2023-02-03T11:21:43.819Z,80.862
2023-02-03T11:22:45.060Z,81.053
2023-02-03T11:23:43.851Z,80.078
2023-02-03T11:24:43.599Z,80.967
2023-02-03T11:25:44.251Z,80.910
2023-02-03T11:26:44.093Z,80.915
2023-02-03T11:27:43.864Z,81.232
2023-02-03T11:28:43.975Z,81.154
2023-02-03T11:29:43.966Z,80.759
2023-02-03T11:30:43.891Z,81.234
2023-02-03T11:31:44.346Z,81.407
2023-02-03T11:32:44.280Z,81.030
2023-02-03T11:33:43.995Z,81.449
2023-02-03T11:34:43.812Z,81.257
2023-02-03T11:35:43.922Z,81.306
2023-02-03T11:36:43.635Z,81.921
2023-02-03T11:37:44.314Z,81.772
2023-02-03T11:38:44.106Z,81.543
2023-02-03T11:40:43.623Z,81.619
2023-02-03T11:41:44.359Z,81.385
2023-02-03T11:42:44.046Z,81.852
2023-02-03T11:43:43.639Z,81.928
2023-02-03T11:44:43.499Z,81.444
2023-02-03T11:45:44.216Z,80.797
2023-02-03T11:46:44.472Z,81.182
2023-02-03T11:47:43.556Z,81.522
2023-02-03T11:48:44.600Z,81.238
2023-02-03T11:49:44.412Z,81.526
2023-02-03T11:50:44.237Z,81.306
2023-02-03T11:51:43.916Z,81.381
2023-02-03T11:52:43.703Z,81.011
2023-02-03T11:54:44.332Z,81.736
2023-02-03T11:55:44.222Z,81.715
2023-02-03T11:56:43.895Z,81.150
2023-02-03T11:57:43.607Z,81.282
2023-02-03T11:58:44.498Z,81.493
2023-02-03T11:59:44.246Z,81.837
2023-02-03T12:00:44.153Z,81.472
2023-02-03T12:01:44.223Z,81.230
2023-02-03T12:02:44.134Z,81.556
2023-02-03T12:03:44.134Z,82.029
2023-02-03T12:04:44.091Z,81.524
2023-02-03T12:05:44.210Z,81.846
2023-02-03T12:06:44.017Z,82.008
2023-02-03T12:07:43.859Z,82.035
2023-02-03T12:08:43.604Z,81.808
2023-02-03T12:09:44.067Z,81.917
2023-02-03T12:10:43.944Z,82.016
2023-02-03T12:11:43.648Z,81.959
2023-02-03T12:12:44.335Z,81.421
2023-02-03T12:14:44.099Z,81.716
2023-02-03T12:15:44.299Z,81.421
2023-02-03T12:16:44.107Z,81.484
2023-02-03T12:17:44.032Z,81.243
2023-02-03T12:18:43.947Z,81.802
2023-02-03T12:19:43.988Z,82.039
2023-02-03T12:20:43.792Z,81.945
2023-02-03T12:21:43.566Z,82.045
2023-02-03T12:22:44.267Z,81.549
2023-02-03T12:23:44.172Z,81.844
2023-02-03T12:24:44.064Z,81.922
2023-02-03T12:25:43.973Z,81.806
2023-02-03T12:26:43.659Z,81.762
2023-02-03T12:27:45.371Z,81.942
2023-02-03T12:28:49.079Z,82.472
2023-02-03T12:29:43.727Z,82.142
2023-02-03T12:30:43.629Z,81.839
2023-02-03T12:31:43.567Z,81.938
2023-02-03T12:32:44.251Z,82.079
2023-02-03T12:33:44.082Z,82.634
2023-02-03T12:34:43.915Z,82.355
2023-02-03T12:35:43.575Z,82.107
2023-02-03T12:36:44.319Z,82.472
2023-02-03T12:37:44.315Z,82.312
2023-02-03T12:39:43.880Z,82.178
2023-02-03T12:40:43.728Z,82.560
2023-02-03T12:41:43.999Z,82.876
2023-02-03T12:42:43.935Z,82.605
2023-02-03T12:43:43.740Z,82.674
2023-02-03T12:44:44.544Z,82.754